createdAt,value
2023-03-21T00:01:52.431Z,9.80
2023-03-21T00:06:54.488Z,14.33
2023-03-21T00:11:56.735Z,18.10
2023-03-21T00:16:58.799Z,12.67
2023-03-21T00:22:07.936Z,11.33
2023-03-21T00:27:38.361Z,13.50
2023-03-21T00:32:35.554Z,16.67
2023-03-21T00:37:41.790Z,15.27
2023-03-21T00:42:45.605Z,20.50
2023-03-21T00:47:48.725Z,14.43
2023-03-21T00:52:51.325Z,11.33
2023-03-21T00:58:01.451Z,13.37
2023-03-21T01:03:21.330Z,12.60
2023-03-21T01:08:35.188Z,12.97
2023-03-21T01:13:53.747Z,10.07
2023-03-21T01:18:59.938Z,10.37
2023-03-21T01:24:02.581Z,12.63
2023-03-21T01:29:05.503Z,12.37
2023-03-21T01:34:07.978Z,14.13
2023-03-21T01:39:10.503Z,11.37
2023-03-21T01:44:17.320Z,13.03
2023-03-21T01:49:46.323Z,9.40
2023-03-21T01:55:04.570Z,14.20
2023-03-21T02:00:16.185Z,11.70
2023-03-21T02:05:44.164Z,12.07
2023-03-21T02:10:50.623Z,12.63
2023-03-21T02:16:17.708Z,13.27
2023-03-21T02:21:53.361Z,13.93
2023-03-21T02:27:05.043Z,12.77
2023-03-21T02:32:41.750Z,11.97
2023-03-21T02:38:00.187Z,11.47
2023-03-21T02:43:22.615Z,14.87
2023-03-21T02:48:44.512Z,10.80
2023-03-21T02:54:23.739Z,12.97
2023-03-21T02:59:23.962Z,14.70
2023-03-21T03:04:28.322Z,13.03
2023-03-21T03:10:03.498Z,11.37
2023-03-21T03:15:22.230Z,11.83
2023-03-21T03:20:48.411Z,10.93
2023-03-21T03:25:56.259Z,8.23
2023-03-21T03:31:09.240Z,8.33
2023-03-21T03:36:31.115Z,10.57
2023-03-21T03:42:28.137Z,9.70
2023-03-21T03:48:08.322Z,11.27
2023-03-21T03:53:22.052Z,9.60
2023-03-21T03:58:39.489Z,10.73
2023-03-21T04:03:53.038Z,10.00
2023-03-21T04:09:03.431Z,7.90
2023-03-21T04:14:08.268Z,14.10
2023-03-21T04:19:11.181Z,11.40
2023-03-21T04:24:13.956Z,13.63
2023-03-21T04:29:20.608Z,8.23
2023-03-21T04:34:40.301Z,9.63
2023-03-21T04:39:43.138Z,11.13
2023-03-21T04:44:46.458Z,12.60
2023-03-21T04:49:49.441Z,9.77
2023-03-21T04:54:51.537Z,15.80
2023-03-21T04:59:54.776Z,13.63
2023-03-21T05:04:57.491Z,14.67
2023-03-21T05:10:01.927Z,17.97
2023-03-21T05:15:06.642Z,8.73
2023-03-21T05:20:11.638Z,16.70
2023-03-21T05:25:13.829Z,12.57
2023-03-21T05:30:33.549Z,12.83
2023-03-21T05:35:37.600Z,16.30
2023-03-21T05:40:50.691Z,15.37
2023-03-21T05:45:53.436Z,12.60
2023-03-21T05:50:56.829Z,14.50
2023-03-21T05:55:59.172Z,12.90
2023-03-21T06:01:15.497Z,11.70
2023-03-21T06:06:24.568Z,10.87
2023-03-21T06:11:38.056Z,13.47
2023-03-21T06:17:03.363Z,15.37
2023-03-21T06:22:07.135Z,16.80
2023-03-21T06:27:12.247Z,15.73
2023-03-21T06:32:27.909Z,19.40
2023-03-21T06:37:34.048Z,12.80
2023-03-21T06:42:36.315Z,13.97
2023-03-21T06:47:44.421Z,20.03
2023-03-21T06:53:00.881Z,13.93
2023-03-21T06:58:06.840Z,14.10
2023-03-21T07:03:09.402Z,10.53
2023-03-21T07:08:12.720Z,14.03
2023-03-21T07:13:15.990Z,12.00
2023-03-21T07:18:31.042Z,8.37
2023-03-21T07:23:33.138Z,10.83
2023-03-21T07:28:35.254Z,15.27
2023-03-21T07:33:37.322Z,11.43
2023-03-21T07:38:39.678Z,10.80
2023-03-21T07:43:41.910Z,10.40
2023-03-21T07:48:46.988Z,12.50
2023-03-21T07:53:49.488Z,8.73
2023-03-21T07:58:51.539Z,7.77
2023-03-21T08:03:53.600Z,5.17
2023-03-21T08:08:55.772Z,7.23
2023-03-21T08:13:59.786Z,6.17
2023-03-21T08:19:02.239Z,9.60
2023-03-21T08:24:04.431Z,10.07
2023-03-21T08:29:06.972Z,6.43
2023-03-21T08:34:09.441Z,10.10
2023-03-21T08:39:11.657Z,9.63
2023-03-21T08:44:14.174Z,8.20
2023-03-21T08:49:16.439Z,6.93
2023-03-21T08:54:22.836Z,10.67
2023-03-21T08:59:25.268Z,6.90
2023-03-21T09:04:27.944Z,8.67
2023-03-21T09:09:30.192Z,9.80
2023-03-21T09:14:33.382Z,11.00
2023-03-21T09:19:35.545Z,7.07
2023-03-21T09:24:38.177Z,10.80
2023-03-21T09:29:43.415Z,10.50
2023-03-21T09:34:46.078Z,8.40
2023-03-21T09:39:50.610Z,8.47
2023-03-21T09:45:02.750Z,9.83
2023-03-21T09:50:33.897Z,10.00
2023-03-21T09:55:39.632Z,5.47
2023-03-21T10:00:47.587Z,6.73
2023-03-21T10:05:52.549Z,7.40
2023-03-21T10:11:02.199Z,6.80
2023-03-21T10:16:21.859Z,7.47
2023-03-21T10:21:56.562Z,10.70
2023-03-21T10:26:51.141Z,9.20
2023-03-21T10:31:54.609Z,5.93
2023-03-21T10:36:59.748Z,5.82
2023-03-21T10:42:01.977Z,5.72
2023-03-21T10:47:09.040Z,8.23
2023-03-21T10:52:13.331Z,3.95
2023-03-21T10:57:21.437Z,8.70
2023-03-21T11:02:33.201Z,6.35
2023-03-21T11:07:38.489Z,8.77
2023-03-21T11:12:46.417Z,7.53
2023-03-21T11:17:48.686Z,5.72
2023-03-21T11:22:54.900Z,4.97
2023-03-21T11:27:57.217Z,3.30
2023-03-21T11:33:06.235Z,5.18
2023-03-21T11:38:25.969Z,9.98
2023-03-21T11:43:36.209Z,7.90
2023-03-21T11:48:44.441Z,9.18
2023-03-21T11:53:57.912Z,6.50
2023-03-21T11:59:18.531Z,5.45
2023-03-21T12:04:46.035Z,7.72
2023-03-21T12:09:55.261Z,8.38
2023-03-21T12:15:06.142Z,6.00
2023-03-21T12:20:29.166Z,5.97
2023-03-21T12:25:39.357Z,6.32
2023-03-21T12:30:50.892Z,7.30
2023-03-21T12:36:11.370Z,6.22
2023-03-21T12:41:19.977Z,5.93
2023-03-21T12:46:45.875Z,9.35
2023-03-21T12:51:51.716Z,6.93
2023-03-21T12:57:18.007Z,6.63
2023-03-21T13:02:42.179Z,5.57
2023-03-21T13:07:49.019Z,4.85
2023-03-21T13:13:00.291Z,7.60
2023-03-21T13:18:16.938Z,6.57
2023-03-21T13:23:24.251Z,6.10
2023-03-21T13:28:29.675Z,3.75
2023-03-21T13:33:34.667Z,5.50
2023-03-21T13:38:47.992Z,5.95
2023-03-21T13:44:02.245Z,8.43
2023-03-21T13:49:10.631Z,4.88
2023-03-21T13:54:16.307Z,6.10
2023-03-21T13:59:45.156Z,6.50
2023-03-21T14:05:04.949Z,6.18
2023-03-21T14:10:36.942Z,5.60
2023-03-21T14:15:56.044Z,5.65
2023-03-21T14:21:00.134Z,4.00
2023-03-21T14:26:02.265Z,7.32
2023-03-21T14:31:04.950Z,5.50
2023-03-21T14:36:13.574Z,8.60
2023-03-21T14:41:27.428Z,5.72
2023-03-21T14:46:29.541Z,5.65
2023-03-21T14:51:31.816Z,5.07
2023-03-21T14:56:36.823Z,5.72
2023-03-21T15:01:40.146Z,5.80
2023-03-21T15:06:53.936Z,6.05
2023-03-21T15:11:57.145Z,8.27
2023-03-21T15:17:02.061Z,6.03
2023-03-21T15:22:16.253Z,7.20
2023-03-21T15:27:23.730Z,5.88
2023-03-21T15:32:28.419Z,3.92
2023-03-21T15:37:36.497Z,5.50
2023-03-21T15:42:42.228Z,7.05
2023-03-21T15:48:03.221Z,4.38
2023-03-21T15:53:08.333Z,4.45
2023-03-21T15:58:20.938Z,6.43
2023-03-21T16:03:27.286Z,4.20
2023-03-21T16:08:35.814Z,8.50
2023-03-21T16:13:37.729Z,5.70
2023-03-21T16:18:39.843Z,7.33
2023-03-21T16:23:41.954Z,6.33
2023-03-21T16:28:45.566Z,5.90
2023-03-21T16:33:48.785Z,11.00
2023-03-21T16:38:55.079Z,7.63
2023-03-21T16:43:57.336Z,6.63
2023-03-21T16:48:59.486Z,8.83
2023-03-21T16:54:02.258Z,10.67
2023-03-21T16:59:05.944Z,8.20
2023-03-21T17:04:08.694Z,7.53
2023-03-21T17:09:14.013Z,8.93
2023-03-21T17:14:21.621Z,6.90
2023-03-21T17:19:26.547Z,11.00
2023-03-21T17:24:29.083Z,7.50
2023-03-21T17:29:31.368Z,10.30
2023-03-21T17:34:33.504Z,12.80
2023-03-21T17:39:35.469Z,10.90
2023-03-21T17:44:38.311Z,10.60
2023-03-21T17:49:40.702Z,14.67
2023-03-21T17:54:42.865Z,14.83
2023-03-21T17:59:44.715Z,14.87
2023-03-21T18:04:46.687Z,19.07
2023-03-21T18:09:49.178Z,19.73
2023-03-21T18:14:51.435Z,19.93
2023-03-21T18:19:53.848Z,13.47
2023-03-21T18:24:57.928Z,10.27
2023-03-21T18:30:32.839Z,10.97
2023-03-21T18:35:22.840Z,9.27
2023-03-21T18:40:24.819Z,7.87
2023-03-21T18:45:27.233Z,7.93
2023-03-21T18:50:29.325Z,8.70
2023-03-21T18:55:45.324Z,7.27
2023-03-21T19:00:51.490Z,6.53
2023-03-21T19:05:58.470Z,8.00
2023-03-21T19:11:04.447Z,6.50
2023-03-21T19:16:11.235Z,4.90
2023-03-21T19:21:13.594Z,7.17
2023-03-21T19:26:15.711Z,5.73
2023-03-21T19:31:19.029Z,9.17
2023-03-21T19:36:23.198Z,10.43
2023-03-21T19:41:25.445Z,7.83
2023-03-21T19:46:27.651Z,10.90
2023-03-21T19:51:30.912Z,9.80
2023-03-21T19:56:34.846Z,8.50
2023-03-21T20:01:37.260Z,10.30
2023-03-21T20:06:39.539Z,9.50
2023-03-21T20:11:41.680Z,7.80
2023-03-21T20:16:44.043Z,6.17
2023-03-21T20:21:52.932Z,8.50
2023-03-21T20:26:58.765Z,8.37
2023-03-21T20:32:01.701Z,3.67
2023-03-21T20:37:06.254Z,7.07
2023-03-21T20:42:09.191Z,6.23
2023-03-21T20:47:11.329Z,7.93
2023-03-21T20:57:38.617Z,5.80
2023-03-21T21:02:45.833Z,5.83
2023-03-21T21:07:49.044Z,8.57
2023-03-21T21:12:52.060Z,7.87
2023-03-21T21:18:06.632Z,6.90
2023-03-21T21:23:09.845Z,7.93
2023-03-21T21:28:11.827Z,8.23
2023-03-21T21:33:22.107Z,10.50
2023-03-21T21:38:24.193Z,8.43
2023-03-21T21:43:26.299Z,11.10
2023-03-21T21:48:28.531Z,9.00
2023-03-21T21:53:33.681Z,10.47
2023-03-21T21:58:38.846Z,9.60
2023-03-21T22:03:46.145Z,7.50
2023-03-21T22:08:51.911Z,8.70
2023-03-21T22:13:53.920Z,10.17
2023-03-21T22:18:55.792Z,7.80
2023-03-21T22:23:57.997Z,11.07
2023-03-21T22:29:01.617Z,8.27
2023-03-21T22:34:03.671Z,7.80
2023-03-21T22:39:05.626Z,8.73
2023-03-21T22:44:07.721Z,11.10
2023-03-21T22:49:09.737Z,13.13
2023-03-21T22:54:11.607Z,9.27
2023-03-21T22:59:13.599Z,12.27
2023-03-21T23:04:16.222Z,5.63
2023-03-21T23:09:18.630Z,9.97
2023-03-21T23:14:21.173Z,10.77
2023-03-21T23:19:25.415Z,8.97
2023-03-21T23:24:27.586Z,15.13
2023-03-21T23:29:29.631Z,12.20
2023-03-21T23:34:31.770Z,11.77
2023-03-21T23:39:34.362Z,14.03
2023-03-21T23:44:36.309Z,17.17
2023-03-21T23:49:39.016Z,14.23
2023-03-21T23:54:40.894Z,10.50
2023-03-21T23:59:43.006Z,13.17
